createdAt,value
2023-03-27T00:00:23.130Z,25.23
2023-03-27T00:04:23.069Z,25.21
2023-03-27T00:08:23.071Z,25.21
2023-03-27T00:12:23.026Z,25.17
2023-03-27T00:16:23.012Z,25.19
2023-03-27T00:20:22.939Z,25.18
2023-03-27T00:24:22.884Z,25.17
2023-03-27T00:28:22.869Z,25.17
2023-03-27T00:32:22.805Z,25.18
2023-03-27T00:36:22.773Z,25.18
2023-03-27T00:40:22.727Z,25.18
2023-03-27T00:44:22.718Z,25.18
2023-03-27T00:48:22.649Z,25.17
2023-03-27T00:52:22.652Z,25.14
2023-03-27T00:56:22.673Z,25.17
2023-03-27T01:00:22.730Z,25.15
2023-03-27T01:04:22.718Z,25.17
2023-03-27T01:08:22.706Z,25.18
2023-03-27T01:12:22.714Z,25.17
2023-03-27T01:16:22.781Z,25.15
2023-03-27T01:20:22.734Z,25.17
2023-03-27T01:24:22.789Z,25.17
2023-03-27T01:28:22.832Z,25.17
2023-03-27T01:32:22.886Z,25.15
2023-03-27T01:36:22.916Z,25.15
2023-03-27T01:40:22.975Z,25.14
2023-03-27T01:44:23.023Z,25.15
2023-03-27T01:48:23.077Z,25.15
2023-03-27T01:52:23.071Z,25.15
2023-03-27T01:56:23.120Z,25.12
2023-03-27T02:00:23.237Z,25.15
2023-03-27T02:04:23.337Z,25.14
2023-03-27T02:08:23.328Z,25.12
2023-03-27T02:12:23.395Z,25.14
2023-03-27T02:16:23.508Z,25.14
2023-03-27T02:20:23.528Z,25.12
2023-03-27T02:24:23.588Z,25.12
2023-03-27T02:28:23.621Z,25.14
2023-03-27T02:32:23.814Z,25.14
2023-03-27T02:36:23.749Z,25.12
2023-03-27T02:40:23.820Z,25.12
2023-03-27T02:44:23.876Z,25.14
2023-03-27T02:48:23.925Z,25.09
2023-03-27T02:52:24.007Z,25.12
2023-03-27T02:56:24.094Z,25.14
2023-03-27T03:00:24.142Z,25.11
2023-03-27T03:04:24.193Z,25.12
2023-03-27T03:08:24.278Z,25.12
2023-03-27T03:12:24.295Z,25.12
2023-03-27T03:16:24.454Z,25.11
2023-03-27T03:20:24.438Z,25.11
2023-03-27T03:24:24.521Z,25.14
2023-03-27T03:28:24.573Z,25.09
2023-03-27T03:32:24.738Z,25.09
2023-03-27T03:36:24.725Z,25.12
2023-03-27T03:40:24.864Z,25.09
2023-03-27T03:44:24.881Z,25.12
2023-03-27T03:48:24.975Z,25.09
2023-03-27T03:52:25.044Z,25.08
2023-03-27T03:56:25.153Z,25.09
2023-03-27T04:00:25.188Z,25.07
2023-03-27T04:04:25.241Z,25.09
2023-03-27T04:08:25.308Z,25.08
2023-03-27T04:12:25.366Z,25.08
2023-03-27T04:16:25.426Z,25.09
2023-03-27T04:20:25.427Z,25.11
2023-03-27T04:24:25.480Z,25.09
2023-03-27T04:28:25.612Z,25.11
2023-03-27T04:32:25.677Z,25.09
2023-03-27T04:36:25.861Z,25.08
2023-03-27T04:40:25.724Z,25.09
2023-03-27T04:44:25.793Z,25.08
2023-03-27T04:48:25.841Z,25.08
2023-03-27T04:52:25.881Z,25.09
2023-03-27T04:56:25.960Z,25.08
2023-03-27T05:00:26.058Z,25.09
2023-03-27T05:04:26.082Z,25.07
2023-03-27T05:08:26.215Z,25.08
2023-03-27T05:12:26.193Z,25.08
2023-03-27T05:16:26.849Z,25.07
2023-03-27T05:20:26.732Z,25.08
2023-03-27T05:24:26.716Z,25.11
2023-03-27T05:28:26.716Z,25.12
2023-03-27T05:32:26.816Z,25.12
2023-03-27T05:36:26.651Z,25.14
2023-03-27T05:40:26.787Z,25.17
2023-03-27T05:44:26.722Z,25.15
2023-03-27T05:48:26.773Z,25.15
2023-03-27T05:52:28.789Z,25.18
2023-03-27T05:56:26.677Z,25.19
2023-03-27T06:00:29.964Z,25.22
2023-03-27T06:08:26.786Z,25.21
2023-03-27T06:12:26.479Z,25.18
2023-03-27T06:16:26.821Z,25.18
2023-03-27T06:20:26.404Z,25.17
2023-03-27T06:24:26.766Z,25.15
2023-03-27T06:28:26.341Z,25.14
2023-03-27T06:32:27.617Z,25.14
2023-03-27T06:36:27.907Z,25.14
2023-03-27T06:40:26.287Z,25.12
2023-03-27T06:44:26.250Z,25.12
2023-03-27T06:48:26.300Z,25.11
2023-03-27T06:52:26.256Z,25.09
2023-03-27T06:56:26.284Z,25.11
2023-03-27T07:00:26.371Z,25.08
2023-03-27T07:04:26.266Z,25.12
2023-03-27T07:08:26.304Z,25.11
2023-03-27T07:12:25.979Z,25.11
2023-03-27T07:16:26.281Z,25.07
2023-03-27T07:20:27.266Z,25.11
2023-03-27T07:24:26.265Z,25.07
2023-03-27T07:28:26.299Z,25.08
2023-03-27T07:32:36.667Z,25.09
2023-03-27T07:36:26.272Z,25.09
2023-03-27T07:40:36.917Z,25.18
2023-03-27T07:44:25.759Z,25.30
2023-03-27T07:48:25.774Z,25.29
2023-03-27T07:52:25.775Z,25.36
2023-03-27T07:56:26.774Z,25.40
2023-03-27T08:00:26.220Z,25.45
2023-03-27T08:04:26.267Z,25.46
2023-03-27T08:08:26.019Z,25.53
2023-03-27T08:12:25.796Z,25.56
2023-03-27T08:16:25.861Z,25.57
2023-03-27T08:20:25.790Z,25.59
2023-03-27T08:24:25.789Z,25.65
2023-03-27T08:28:25.523Z,25.66
2023-03-27T08:32:26.028Z,25.60
2023-03-27T08:36:25.822Z,25.62
2023-03-27T08:40:26.417Z,25.62
2023-03-27T08:44:26.144Z,25.56
2023-03-27T08:48:26.834Z,25.23
2023-03-27T08:52:26.820Z,24.44
2023-03-27T08:56:26.967Z,24.37
2023-03-27T09:00:26.965Z,24.57
2023-03-27T09:04:26.880Z,24.67
2023-03-27T09:08:27.308Z,24.84
2023-03-27T09:12:27.340Z,25.02
2023-03-27T09:16:28.730Z,25.21
2023-03-27T09:20:27.397Z,25.29
2023-03-27T09:24:27.321Z,25.49
2023-03-27T09:28:27.318Z,25.56
2023-03-27T09:32:27.396Z,25.63
2023-03-27T09:36:26.908Z,25.62
2023-03-27T09:40:27.331Z,25.65
2023-03-27T09:44:26.822Z,25.72
2023-03-27T09:48:26.825Z,25.65
2023-03-27T09:52:26.756Z,25.72
2023-03-27T09:56:26.698Z,25.77
2023-03-27T10:00:26.664Z,25.79
2023-03-27T10:04:26.832Z,25.73
2023-03-27T10:08:27.469Z,25.77
2023-03-27T10:12:26.839Z,25.80
2023-03-27T10:20:26.873Z,25.87
2023-03-27T10:24:26.662Z,25.87
2023-03-27T10:28:26.867Z,25.88
2023-03-27T10:32:26.865Z,25.86
2023-03-27T10:36:26.850Z,25.86
2023-03-27T10:40:26.514Z,25.84
2023-03-27T10:44:27.275Z,25.84
2023-03-27T10:48:26.860Z,25.79
2023-03-27T10:52:26.856Z,25.79
2023-03-27T10:56:26.882Z,25.73
2023-03-27T11:00:26.683Z,25.72
2023-03-27T11:04:26.862Z,25.73
2023-03-27T11:08:27.361Z,25.73
2023-03-27T11:12:27.396Z,25.70
2023-03-27T11:16:27.490Z,25.72
2023-03-27T11:20:27.869Z,25.69
2023-03-27T11:24:27.863Z,25.66
2023-03-27T11:28:27.893Z,25.65
2023-03-27T11:32:27.887Z,25.65
2023-03-27T11:36:27.691Z,25.67
2023-03-27T11:40:27.871Z,25.66
2023-03-27T11:44:27.907Z,25.65
2023-03-27T11:48:27.884Z,25.66
2023-03-27T11:52:27.882Z,25.66
2023-03-27T11:56:27.881Z,25.66
2023-03-27T12:00:28.416Z,25.66
2023-03-27T12:04:28.389Z,25.69
2023-03-27T12:08:28.892Z,25.72
2023-03-27T12:12:28.925Z,25.70
2023-03-27T12:16:29.166Z,25.66
2023-03-27T12:20:29.397Z,25.66
2023-03-27T12:24:28.963Z,25.63
2023-03-27T12:28:29.403Z,25.66
2023-03-27T12:32:29.024Z,25.65
2023-03-27T12:36:28.892Z,25.63
2023-03-27T12:40:29.119Z,25.63
2023-03-27T12:44:28.897Z,25.60
2023-03-27T12:48:29.475Z,25.63
2023-03-27T12:52:29.147Z,25.62
2023-03-27T12:56:29.434Z,25.60
2023-03-27T13:00:29.404Z,25.57
2023-03-27T13:04:29.432Z,25.59
2023-03-27T13:08:29.243Z,25.59
2023-03-27T13:12:29.423Z,25.54
2023-03-27T13:16:29.453Z,25.56
2023-03-27T13:20:29.441Z,25.56
2023-03-27T13:24:29.097Z,25.56
2023-03-27T13:28:29.420Z,25.57
2023-03-27T13:32:29.432Z,25.56
2023-03-27T13:36:29.450Z,25.54
2023-03-27T13:40:28.950Z,25.54
2023-03-27T13:44:28.928Z,25.52
2023-03-27T13:48:28.929Z,25.49
2023-03-27T13:52:28.863Z,25.54
2023-03-27T13:56:28.931Z,25.53
2023-03-27T14:00:28.937Z,25.52
2023-03-27T14:04:28.938Z,25.36
2023-03-27T14:08:28.968Z,24.17
2023-03-27T14:12:28.943Z,24.11
2023-03-27T14:16:28.841Z,24.32
2023-03-27T14:20:28.962Z,24.53
2023-03-27T14:24:28.985Z,24.71
2023-03-27T14:28:28.952Z,24.84
2023-03-27T14:32:28.640Z,24.97
2023-03-27T14:36:28.961Z,25.07
2023-03-27T14:40:28.976Z,25.17
2023-03-27T14:44:28.507Z,25.19
2023-03-27T14:48:28.957Z,25.25
2023-03-27T14:52:28.433Z,25.28
2023-03-27T14:56:28.417Z,25.28
2023-03-27T15:00:28.357Z,25.29
2023-03-27T15:04:28.461Z,25.30
2023-03-27T15:08:28.273Z,25.30
2023-03-27T15:12:28.493Z,25.32
2023-03-27T15:16:28.514Z,25.33
2023-03-27T15:20:28.973Z,25.32
2023-03-27T15:24:29.015Z,25.35
2023-03-27T15:28:28.762Z,25.33
2023-03-27T15:32:28.816Z,25.33
2023-03-27T15:36:28.938Z,25.35
2023-03-27T15:40:29.082Z,25.35
2023-03-27T15:44:29.256Z,25.36
2023-03-27T15:48:29.276Z,25.33
2023-03-27T15:52:29.345Z,25.32
2023-03-27T15:56:29.405Z,25.33
2023-03-27T16:00:29.465Z,25.33
2023-03-27T16:04:29.538Z,25.33
2023-03-27T16:08:29.646Z,25.32
2023-03-27T16:12:29.904Z,25.30
2023-03-27T16:16:29.774Z,25.32
2023-03-27T16:20:29.726Z,25.32
2023-03-27T16:24:29.993Z,25.29
2023-03-27T16:28:29.864Z,25.30
2023-03-27T16:32:29.955Z,25.30
2023-03-27T16:36:29.875Z,25.32
2023-03-27T16:40:29.881Z,25.30
2023-03-27T16:44:29.882Z,25.30
2023-03-27T16:48:29.952Z,25.29
2023-03-27T16:52:29.930Z,25.29
2023-03-27T16:56:29.944Z,25.30
2023-03-27T17:00:30.013Z,25.29
2023-03-27T17:04:30.121Z,25.30
2023-03-27T17:08:30.137Z,25.26
2023-03-27T17:12:30.234Z,25.26
2023-03-27T17:16:30.312Z,25.28
2023-03-27T17:20:30.349Z,25.26
2023-03-27T17:24:30.417Z,25.25
2023-03-27T17:28:30.507Z,25.29
2023-03-27T17:32:30.603Z,25.26
2023-03-27T17:36:40.127Z,25.25
2023-03-27T17:40:30.565Z,25.26
2023-03-27T17:44:30.503Z,25.26
2023-03-27T17:48:30.466Z,25.25
2023-03-27T17:52:30.464Z,25.26
2023-03-27T17:56:30.397Z,25.25
2023-03-27T18:00:30.344Z,25.23
2023-03-27T18:04:30.296Z,25.22
2023-03-27T18:08:30.287Z,25.25
2023-03-27T18:12:30.223Z,25.23
2023-03-27T18:16:30.222Z,25.25
2023-03-27T18:20:30.157Z,25.23
2023-03-27T18:24:30.291Z,25.22
2023-03-27T18:28:30.073Z,25.22
2023-03-27T18:32:30.105Z,25.22
2023-03-27T18:36:29.990Z,25.22
2023-03-27T18:40:29.975Z,25.22
2023-03-27T18:44:29.915Z,25.22
2023-03-27T18:48:29.893Z,25.21
2023-03-27T18:52:29.834Z,25.22
2023-03-27T18:56:29.820Z,25.18
2023-03-27T19:00:29.770Z,25.19
2023-03-27T19:04:29.723Z,25.19
2023-03-27T19:08:29.704Z,25.21
2023-03-27T19:12:29.788Z,25.19
2023-03-27T19:16:29.637Z,25.21
2023-03-27T19:20:29.563Z,25.18
2023-03-27T19:24:29.530Z,25.18
2023-03-27T19:28:29.522Z,25.21
2023-03-27T19:32:29.465Z,25.19
2023-03-27T19:36:29.425Z,25.18
2023-03-27T19:40:29.408Z,25.19
2023-03-27T19:44:29.367Z,25.18
2023-03-27T19:48:29.390Z,25.18
2023-03-27T19:52:29.336Z,25.18
2023-03-27T19:56:29.387Z,25.21
2023-03-27T20:00:31.393Z,25.18
2023-03-27T20:04:29.184Z,25.17
2023-03-27T20:08:29.109Z,25.15
2023-03-27T20:12:30.662Z,25.17
2023-03-27T20:16:29.091Z,25.17
2023-03-27T20:20:28.990Z,25.18
2023-03-27T20:24:29.078Z,25.18
2023-03-27T20:28:28.916Z,25.18
2023-03-27T20:32:28.959Z,25.15
2023-03-27T20:36:28.838Z,25.18
2023-03-27T20:40:32.897Z,25.17
2023-03-27T20:44:28.765Z,25.17
2023-03-27T20:48:28.753Z,25.17
2023-03-27T20:52:28.685Z,25.15
2023-03-27T20:56:28.649Z,25.14
2023-03-27T21:00:28.609Z,25.17
2023-03-27T21:04:28.596Z,25.14
2023-03-27T21:08:28.564Z,25.15
2023-03-27T21:12:28.495Z,25.17
2023-03-27T21:16:28.512Z,25.17
2023-03-27T21:20:28.449Z,25.14
2023-03-27T21:24:28.384Z,25.14
2023-03-27T21:28:28.343Z,25.17
2023-03-27T21:32:28.314Z,25.14
2023-03-27T21:36:29.874Z,25.14
2023-03-27T21:40:28.230Z,25.12
2023-03-27T21:44:28.630Z,25.12
2023-03-27T21:48:28.208Z,25.11
2023-03-27T21:52:28.150Z,25.15
2023-03-27T21:56:28.085Z,25.12
2023-03-27T22:00:28.056Z,25.12
2023-03-27T22:04:28.030Z,25.12
2023-03-27T22:08:28.006Z,25.15
2023-03-27T22:12:27.937Z,25.14
2023-03-27T22:16:27.998Z,25.11
2023-03-27T22:20:27.856Z,25.12
2023-03-27T22:24:27.846Z,25.14
2023-03-27T22:28:27.783Z,25.09
2023-03-27T22:32:27.788Z,25.12
2023-03-27T22:36:27.712Z,25.12
2023-03-27T22:40:27.694Z,25.12
2023-03-27T22:44:27.625Z,25.11
2023-03-27T22:48:27.591Z,25.12
2023-03-27T22:52:27.554Z,25.09
2023-03-27T22:56:27.561Z,25.11
2023-03-27T23:00:27.493Z,25.11
2023-03-27T23:56:23.311Z,25.14
